Forum - i mitici sud

tutti gli utenti del gruppo possono partecipare le discussione con riferimento a sesso o non conforme a chatta.it verranno imossi

Amministratore
F.ranco52 24/02/2020 ore 09:16 Quota

(nessuno) Nowcasting Lunedì 24 Febbraio 2020

Buongiorno a tutti


Notizie Meteo dell'Italia da il Meteo .It


http://ilMeteo.It


la Situazione Italiana vista dal Sat









il Radar Europeo









Brindisi

METAR LIBR 240650Z 24007KT CAVOK 08/05 Q1020=

METAR di Brindisi del 24 alle 6,50z

Vento da 240° W SW 7 nodi (12,962 km) Visibilità 10000 m
Base delle Nubi e Visibilità OK
Temp 8°C Dew 5°C Ur 81% hPa 1020

Brindisi

TAF LIBR 240500Z 2406/2506 VRB06KT CAVOK BECMG 2409/2411 01010KT BECMG 2421/2423 VRB05KT=

le TAF du Brindisi delle 5z Previsioni dalle 6z alle 6z del 25

Vento Variabile 6 nodi (11,112 km) Visibilità 10000 m m
Base delle Nubi e Visibilità OK
le Condizioni Diverranno fra le 9z e le 11z
Vento da 10° N NE 10 nodi (18,52 km)
le Condizioni Diverranno fra le 21z e le 23z
Vento Variabile 5 nodi (9,26 km)


Gioia del Colle

METAR LIBV 240655Z VRB02KT CAVOK 04/03 Q1019 RMK FEW FEW200 VIS MIN 9999 WIND THR32 24001KT WIND THR14 VRB02KT BLU=

METAR di Gioia del Colle del 24 alle 6,55z

Vento Variabile 2 nodi (3,704 km) Visibilità 10000 m
Base delle Nubi e Visibilità OK
Temp 4°C Dew 3°C Ur 93% hPa 1019
Aumento della Nuvolosità a 1-2 ottavi
Copertura 1-2 ottavi da 20000 piedi (6096 m)
Visibilità Minima 10000 m

Gioia del Colle

TAF LIBV 240500Z 2406/2415 34008KT CAVOK=

le TAQF di Gioia del Colle delle 5z Previsioni dalle 6z alle 15z

Vento da 340° N NW 8 nodi (14,816 km) Visibilità 10000 m
Base delle Nubi e Visibilità OK
2659175
Buongiorno a tutti Notizie Meteo dell'Italia da il Meteo .It http://ilMeteo.It la Situazione Italiana vista dal Sat « immagine »...
Discussione
24/02/2020 09:16:28
none
  • mi piace
    iLikeIt
    PublicVote

Vuoi partecipare anche tu a questa discussione?

Rispondi per lasciare il tuo messaggio in questa discussione